メインページ
METAR-TAF:

METAR-TAF

空港 :

ムルタラ・モハンマド国際空港

ラゴス, ナイジェリア

緯度: 06-35N, 経度: 003-20E, 海抜: 40m

現時点の気象観測

当レポートは48分前の11:00(UTC)に作成
の風 3kt
気温 31°C
湿度 75%
気圧 1014 hPa
視程: 4000m
高度1400ftの千切れ雲あり
煙霧

METAR: DNMM 161100Z 10003KT 4000 HZ BKN014 31/26 Q1014 NOSIG

時間: 12:48 (11:48 UTC)

予報

当レポートは1時間53分前の09:55(UTC)に作成
予報は16日の 12時(UTC)から 17日の 18時(UTC)まで有効
の風 10kt
視程: 7000m
高度1500ftの千切れ雲あり
16日の 18時(UTC)から 16日の 20時(UTC)まで徐々に
変向風 2kt
高度1100ftの雲は散在している
17日の 04時(UTC)から 17日の 08時(UTC)まで一時的に
視程: 5000m
確率 30%
17日の 07時(UTC)から 17日の 08時(UTC)まで
視程: 1500m

TAF: DNMM 160955Z 1612/1718 19010KT 7000 BKN015 BECMG 1618/1620 VRB02KT SCT011 TEMPO 1704/1708 5000 BR/HZ PROB30 1707/1708 1500 BR/HZ

4,000以上の空港の気象観測と天気予報(METAR報とTAF報)

利用可能な観測所は地図上に黄色い丸と赤い丸で示す。

丸の上にカーソルを重ねると観測所名を参照できる。

次にクリックすると気象観測と天気予報を参照できる。

マップの切り替え:黒色「×」印の緑ボタンをクリックして拡大、「-」印の緑ボタンをクリックして縮小、緑色の三角印をクリックして隣りの地図に切り替え


METAR-TAF: